sensor_id;sensor_type;location;lat;lon;timestamp;pressure;altitude;pressure_sealevel;temperature;humidity
36138;BME280;22194;50.046;21.954;2022-11-15T00:01:18;99389.17;;;4.41;79.33
36138;BME280;22194;50.046;21.954;2022-11-15T00:03:51;99393.02;;;4.34;79.17
36138;BME280;22194;50.046;21.954;2022-11-15T00:06:19;99394.19;;;4.30;79.58
36138;BME280;22194;50.046;21.954;2022-11-15T00:08:47;99386.59;;;4.31;79.44
36138;BME280;22194;50.046;21.954;2022-11-15T00:11:15;99386.84;;;4.35;79.51
36138;BME280;22194;50.046;21.954;2022-11-15T00:13:44;99383.33;;;4.34;79.60
36138;BME280;22194;50.046;21.954;2022-11-15T00:16:11;99379.55;;;4.32;79.55
36138;BME280;22194;50.046;21.954;2022-11-15T00:18:39;99378.43;;;4.29;79.55
36138;BME280;22194;50.046;21.954;2022-11-15T00:21:13;99376.41;;;4.28;79.61
36138;BME280;22194;50.046;21.954;2022-11-15T00:23:41;99373.18;;;4.25;79.34
36138;BME280;22194;50.046;21.954;2022-11-15T00:26:12;99371.71;;;4.23;79.30
36138;BME280;22194;50.046;21.954;2022-11-15T00:28:41;99371.07;;;4.17;79.19
36138;BME280;22194;50.046;21.954;2022-11-15T00:31:12;99364.70;;;4.09;79.18
36138;BME280;22194;50.046;21.954;2022-11-15T00:33:43;99364.36;;;4.05;79.47
36138;BME280;22194;50.046;21.954;2022-11-15T00:36:12;99359.64;;;4.00;79.30
36138;BME280;22194;50.046;21.954;2022-11-15T00:38:41;99357.43;;;3.94;79.54
36138;BME280;22194;50.046;21.954;2022-11-15T00:41:09;99356.25;;;3.88;79.32
36138;BME280;22194;50.046;21.954;2022-11-15T00:43:37;99356.72;;;3.85;79.33
36138;BME280;22194;50.046;21.954;2022-11-15T00:46:09;99353.81;;;3.87;79.64
36138;BME280;22194;50.046;21.954;2022-11-15T00:48:37;99350.31;;;3.92;79.33
36138;BME280;22194;50.046;21.954;2022-11-15T00:51:05;99348.65;;;3.94;79.63
36138;BME280;22194;50.046;21.954;2022-11-15T00:53:34;99346.98;;;3.96;79.68
36138;BME280;22194;50.046;21.954;2022-11-15T00:56:02;99347.23;;;3.99;79.82
36138;BME280;22194;50.046;21.954;2022-11-15T00:58:30;99348.27;;;4.04;79.57
36138;BME280;22194;50.046;21.954;2022-11-15T01:01:10;99345.29;;;4.08;79.58
36138;BME280;22194;50.046;21.954;2022-11-15T01:03:40;99346.28;;;4.05;79.43
36138;BME280;22194;50.046;21.954;2022-11-15T01:06:09;99345.10;;;4.04;79.61
36138;BME280;22194;50.046;21.954;2022-11-15T01:08:39;99346.12;;;4.04;79.63
36138;BME280;22194;50.046;21.954;2022-11-15T01:11:11;99344.14;;;4.01;79.60
36138;BME280;22194;50.046;21.954;2022-11-15T01:13:40;99341.38;;;3.96;79.42
36138;BME280;22194;50.046;21.954;2022-11-15T01:16:15;99338.91;;;3.92;79.45
36138;BME280;22194;50.046;21.954;2022-11-15T01:18:46;99338.86;;;3.88;79.60
36138;BME280;22194;50.046;21.954;2022-11-15T01:21:17;99338.55;;;3.88;79.58
36138;BME280;22194;50.046;21.954;2022-11-15T01:23:46;99335.27;;;3.86;79.77
36138;BME280;22194;50.046;21.954;2022-11-15T01:26:15;99330.10;;;3.84;79.68
36138;BME280;22194;50.046;21.954;2022-11-15T01:28:43;99327.84;;;3.84;79.65
36138;BME280;22194;50.046;21.954;2022-11-15T01:31:14;99323.64;;;3.83;79.66
36138;BME280;22194;50.046;21.954;2022-11-15T01:33:43;99316.46;;;3.83;79.88
36138;BME280;22194;50.046;21.954;2022-11-15T01:36:15;99312.75;;;3.84;79.77
36138;BME280;22194;50.046;21.954;2022-11-15T01:38:45;99306.06;;;3.84;79.81
36138;BME280;22194;50.046;21.954;2022-11-15T01:41:19;99305.41;;;3.87;79.97
36138;BME280;22194;50.046;21.954;2022-11-15T01:43:53;99305.27;;;3.91;79.69
36138;BME280;22194;50.046;21.954;2022-11-15T01:46:34;99305.83;;;3.90;79.82
36138;BME280;22194;50.046;21.954;2022-11-15T01:49:11;99305.48;;;3.85;79.69
36138;BME280;22194;50.046;21.954;2022-11-15T01:51:41;99299.30;;;3.82;79.89
36138;BME280;22194;50.046;21.954;2022-11-15T01:54:13;99299.55;;;3.80;79.64
36138;BME280;22194;50.046;21.954;2022-11-15T01:56:51;99297.55;;;3.78;79.71
36138;BME280;22194;50.046;21.954;2022-11-15T01:59:21;99297.97;;;3.80;79.89
36138;BME280;22194;50.046;21.954;2022-11-15T02:01:50;99293.95;;;3.85;79.82
36138;BME280;22194;50.046;21.954;2022-11-15T02:04:24;99296.77;;;3.88;79.87
36138;BME280;22194;50.046;21.954;2022-11-15T02:06:54;99299.65;;;3.91;80.00
36138;BME280;22194;50.046;21.954;2022-11-15T02:09:23;99299.94;;;3.92;79.78
36138;BME280;22194;50.046;21.954;2022-11-15T02:11:53;99296.76;;;3.93;79.83
36138;BME280;22194;50.046;21.954;2022-11-15T02:14:23;99294.60;;;3.89;79.71
36138;BME280;22194;50.046;21.954;2022-11-15T02:22:27;99283.81;;;3.92;79.91
36138;BME280;22194;50.046;21.954;2022-11-15T02:36:24;99276.14;;;3.86;80.10
36138;BME280;22194;50.046;21.954;2022-11-15T02:39:18;99272.05;;;3.79;79.82
36138;BME280;22194;50.046;21.954;2022-11-15T02:42:00;99272.16;;;3.72;80.04
36138;BME280;22194;50.046;21.954;2022-11-15T02:44:37;99268.73;;;3.66;79.93
36138;BME280;22194;50.046;21.954;2022-11-15T02:47:11;99274.23;;;3.56;79.93
36138;BME280;22194;50.046;21.954;2022-11-15T02:49:49;99269.70;;;3.51;79.95
36138;BME280;22194;50.046;21.954;2022-11-15T02:52:21;99267.12;;;3.54;80.13
36138;BME280;22194;50.046;21.954;2022-11-15T02:55:00;99262.02;;;3.59;80.35
36138;BME280;22194;50.046;21.954;2022-11-15T02:57:52;99261.64;;;3.64;80.29
36138;BME280;22194;50.046;21.954;2022-11-15T03:00:27;99257.73;;;3.69;80.35
36138;BME280;22194;50.046;21.954;2022-11-15T03:05:45;99253.91;;;3.60;79.74
36138;BME280;22194;50.046;21.954;2022-11-15T03:08:32;99247.73;;;3.52;79.87
36138;BME280;22194;50.046;21.954;2022-11-15T03:11:14;99250.34;;;3.48;79.82
36138;BME280;22194;50.046;21.954;2022-11-15T03:13:53;99246.15;;;3.43;79.92
36138;BME280;22194;50.046;21.954;2022-11-15T03:16:34;99245.72;;;3.41;80.11
36138;BME280;22194;50.046;21.954;2022-11-15T03:19:13;99239.03;;;3.41;80.33
36138;BME280;22194;50.046;21.954;2022-11-15T03:21:43;99235.14;;;3.42;80.22
36138;BME280;22194;50.046;21.954;2022-11-15T03:24:14;99235.40;;;3.45;80.12
36138;BME280;22194;50.046;21.954;2022-11-15T03:26:51;99236.10;;;3.45;80.27
36138;BME280;22194;50.046;21.954;2022-11-15T03:29:29;99235.59;;;3.45;80.28
36138;BME280;22194;50.046;21.954;2022-11-15T03:32:23;99229.89;;;3.42;80.16
36138;BME280;22194;50.046;21.954;2022-11-15T03:35:01;99227.70;;;3.40;79.81
36138;BME280;22194;50.046;21.954;2022-11-15T03:38:15;99222.65;;;3.35;80.07
36138;BME280;22194;50.046;21.954;2022-11-15T03:40:45;99219.23;;;3.33;80.06
36138;BME280;22194;50.046;21.954;2022-11-15T03:46:02;99217.79;;;3.29;79.97
36138;BME280;22194;50.046;21.954;2022-11-15T03:48:39;99215.91;;;3.28;80.23
36138;BME280;22194;50.046;21.954;2022-11-15T03:51:10;99208.48;;;3.30;80.21
36138;BME280;22194;50.046;21.954;2022-11-15T03:53:38;99207.10;;;3.33;80.27
36138;BME280;22194;50.046;21.954;2022-11-15T03:56:08;99206.67;;;3.36;80.35
36138;BME280;22194;50.046;21.954;2022-11-15T03:58:36;99201.51;;;3.37;80.35
36138;BME280;22194;50.046;21.954;2022-11-15T04:01:04;99202.02;;;3.34;80.42
36138;BME280;22194;50.046;21.954;2022-11-15T04:03:32;99196.54;;;3.22;79.88
36138;BME280;22194;50.046;21.954;2022-11-15T04:06:01;99201.28;;;3.08;79.83
36138;BME280;22194;50.046;21.954;2022-11-15T04:08:29;99197.98;;;2.98;79.90
36138;BME280;22194;50.046;21.954;2022-11-15T04:10:57;99198.10;;;2.91;80.00
36138;BME280;22194;50.046;21.954;2022-11-15T04:13:25;99195.05;;;2.88;80.12
36138;BME280;22194;50.046;21.954;2022-11-15T04:15:53;99193.30;;;2.88;80.18
36138;BME280;22194;50.046;21.954;2022-11-15T04:18:21;99192.42;;;2.88;80.31
36138;BME280;22194;50.046;21.954;2022-11-15T04:20:50;99183.98;;;2.89;80.25
36138;BME280;22194;50.046;21.954;2022-11-15T04:23:36;99185.66;;;2.91;80.44
36138;BME280;22194;50.046;21.954;2022-11-15T04:26:23;99186.11;;;2.93;80.27
36138;BME280;22194;50.046;21.954;2022-11-15T04:28:51;99180.27;;;2.90;80.49
36138;BME280;22194;50.046;21.954;2022-11-15T04:31:38;99185.69;;;2.86;80.21
36138;BME280;22194;50.046;21.954;2022-11-15T04:34:07;99183.46;;;2.80;80.07
36138;BME280;22194;50.046;21.954;2022-11-15T04:36:35;99185.16;;;2.72;79.96
36138;BME280;22194;50.046;21.954;2022-11-15T04:39:21;99186.13;;;2.65;80.07
36138;BME280;22194;50.046;21.954;2022-11-15T04:41:49;99187.20;;;2.65;80.12
36138;BME280;22194;50.046;21.954;2022-11-15T04:44:17;99184.86;;;2.66;80.19
36138;BME280;22194;50.046;21.954;2022-11-15T04:46:45;99185.83;;;2.59;79.98
36138;BME280;22194;50.046;21.954;2022-11-15T04:49:12;99184.91;;;2.46;79.80
36138;BME280;22194;50.046;21.954;2022-11-15T04:51:40;99187.02;;;2.36;79.78
36138;BME280;22194;50.046;21.954;2022-11-15T04:54:08;99185.86;;;2.25;79.76
36138;BME280;22194;50.046;21.954;2022-11-15T04:56:36;99181.17;;;2.14;79.66
36138;BME280;22194;50.046;21.954;2022-11-15T04:59:04;99179.39;;;2.05;79.79
36138;BME280;22194;50.046;21.954;2022-11-15T05:01:32;99177.36;;;1.99;79.87
36138;BME280;22194;50.046;21.954;2022-11-15T05:04:00;99178.73;;;1.95;80.09
36138;BME280;22194;50.046;21.954;2022-11-15T05:06:48;99171.69;;;1.90;79.97
36138;BME280;22194;50.046;21.954;2022-11-15T05:09:19;99168.53;;;1.86;79.86
36138;BME280;22194;50.046;21.954;2022-11-15T05:11:48;99164.54;;;1.80;80.14
36138;BME280;22194;50.046;21.954;2022-11-15T05:14:16;99163.61;;;1.77;80.23
36138;BME280;22194;50.046;21.954;2022-11-15T05:16:44;99163.09;;;1.72;80.12
36138;BME280;22194;50.046;21.954;2022-11-15T05:19:12;99158.70;;;1.67;79.91
36138;BME280;22194;50.046;21.954;2022-11-15T05:21:40;99151.78;;;1.65;80.17
36138;BME280;22194;50.046;21.954;2022-11-15T05:24:10;99146.98;;;1.62;80.14
36138;BME280;22194;50.046;21.954;2022-11-15T05:26:38;99145.77;;;1.62;80.09
36138;BME280;22194;50.046;21.954;2022-11-15T05:29:09;99144.42;;;1.65;80.25
36138;BME280;22194;50.046;21.954;2022-11-15T05:31:40;99136.11;;;1.68;80.35
36138;BME280;22194;50.046;21.954;2022-11-15T05:34:09;99133.11;;;1.64;80.10
36138;BME280;22194;50.046;21.954;2022-11-15T05:36:41;99131.45;;;1.56;80.14
36138;BME280;22194;50.046;21.954;2022-11-15T05:39:10;99130.59;;;1.51;79.97
36138;BME280;22194;50.046;21.954;2022-11-15T05:41:45;99134.54;;;1.48;80.26
36138;BME280;22194;50.046;21.954;2022-11-15T05:44:17;99132.72;;;1.45;80.18
36138;BME280;22194;50.046;21.954;2022-11-15T05:46:50;99131.33;;;1.40;80.41
36138;BME280;22194;50.046;21.954;2022-11-15T05:49:24;99129.67;;;1.37;80.34
36138;BME280;22194;50.046;21.954;2022-11-15T05:51:56;99127.41;;;1.37;80.16
36138;BME280;22194;50.046;21.954;2022-11-15T05:54:26;99130.09;;;1.35;80.27
36138;BME280;22194;50.046;21.954;2022-11-15T05:56:55;99132.21;;;1.34;80.38
36138;BME280;22194;50.046;21.954;2022-11-15T05:59:24;99131.94;;;1.37;80.39
36138;BME280;22194;50.046;21.954;2022-11-15T06:01:52;99127.70;;;1.38;80.51
36138;BME280;22194;50.046;21.954;2022-11-15T06:04:20;99124.29;;;1.36;80.37
36138;BME280;22194;50.046;21.954;2022-11-15T06:06:49;99127.29;;;1.34;80.21
36138;BME280;22194;50.046;21.954;2022-11-15T06:09:17;99121.86;;;1.35;80.50
36138;BME280;22194;50.046;21.954;2022-11-15T06:11:45;99121.59;;;1.33;80.25
36138;BME280;22194;50.046;21.954;2022-11-15T06:14:13;99122.80;;;1.28;80.35
36138;BME280;22194;50.046;21.954;2022-11-15T06:16:41;99125.85;;;1.26;80.41
36138;BME280;22194;50.046;21.954;2022-11-15T06:19:09;99122.65;;;1.27;80.46
36138;BME280;22194;50.046;21.954;2022-11-15T06:21:37;99123.61;;;1.30;80.37
36138;BME280;22194;50.046;21.954;2022-11-15T06:24:06;99129.19;;;1.30;80.58
36138;BME280;22194;50.046;21.954;2022-11-15T06:26:35;99127.77;;;1.31;80.25
36138;BME280;22194;50.046;21.954;2022-11-15T06:29:04;99123.95;;;1.30;80.30
36138;BME280;22194;50.046;21.954;2022-11-15T06:31:33;99121.40;;;1.29;80.56
36138;BME280;22194;50.046;21.954;2022-11-15T06:34:02;99118.75;;;1.28;80.57
36138;BME280;22194;50.046;21.954;2022-11-15T06:36:30;99116.92;;;1.31;80.31
36138;BME280;22194;50.046;21.954;2022-11-15T06:38:58;99116.24;;;1.36;80.45
36138;BME280;22194;50.046;21.954;2022-11-15T06:41:26;99114.85;;;1.41;80.72
36138;BME280;22194;50.046;21.954;2022-11-15T06:43:54;99115.31;;;1.47;80.64
36138;BME280;22194;50.046;21.954;2022-11-15T06:46:22;99114.75;;;1.54;80.54
36138;BME280;22194;50.046;21.954;2022-11-15T06:48:51;99115.23;;;1.60;80.68
36138;BME280;22194;50.046;21.954;2022-11-15T06:51:20;99113.17;;;1.64;80.78
36138;BME280;22194;50.046;21.954;2022-11-15T06:53:48;99113.21;;;1.68;80.76
36138;BME280;22194;50.046;21.954;2022-11-15T06:56:16;99110.27;;;1.72;80.67
36138;BME280;22194;50.046;21.954;2022-11-15T06:58:44;99114.66;;;1.76;80.71
36138;BME280;22194;50.046;21.954;2022-11-15T07:01:12;99112.89;;;1.82;80.77
36138;BME280;22194;50.046;21.954;2022-11-15T07:03:42;99111.09;;;1.88;80.98
36138;BME280;22194;50.046;21.954;2022-11-15T07:06:10;99113.27;;;1.96;80.83
36138;BME280;22194;50.046;21.954;2022-11-15T07:08:39;99105.81;;;2.03;80.99
36138;BME280;22194;50.046;21.954;2022-11-15T07:11:08;99107.66;;;2.11;81.00
36138;BME280;22194;50.046;21.954;2022-11-15T07:13:36;99112.09;;;2.18;80.91
36138;BME280;22194;50.046;21.954;2022-11-15T07:16:08;99113.20;;;2.26;81.11
36138;BME280;22194;50.046;21.954;2022-11-15T07:18:39;99108.38;;;2.33;81.03
36138;BME280;22194;50.046;21.954;2022-11-15T07:21:10;99109.16;;;2.41;81.10
36138;BME280;22194;50.046;21.954;2022-11-15T07:23:39;99103.27;;;2.48;80.93
36138;BME280;22194;50.046;21.954;2022-11-15T07:26:08;99102.65;;;2.55;81.05
36138;BME280;22194;50.046;21.954;2022-11-15T07:28:36;99095.34;;;2.63;81.02
36138;BME280;22194;50.046;21.954;2022-11-15T07:31:06;99093.77;;;2.72;80.92
36138;BME280;22194;50.046;21.954;2022-11-15T07:33:35;99089.05;;;2.80;81.02
36138;BME280;22194;50.046;21.954;2022-11-15T07:36:05;99085.65;;;2.90;81.31
36138;BME280;22194;50.046;21.954;2022-11-15T07:38:35;99086.28;;;3.01;81.15
36138;BME280;22194;50.046;21.954;2022-11-15T07:41:10;99082.71;;;3.11;81.32
36138;BME280;22194;50.046;21.954;2022-11-15T07:43:38;99076.86;;;3.21;81.39
36138;BME280;22194;50.046;21.954;2022-11-15T07:46:08;99076.38;;;3.33;81.48
36138;BME280;22194;50.046;21.954;2022-11-15T07:48:38;99075.73;;;3.44;81.39
36138;BME280;22194;50.046;21.954;2022-11-15T07:51:14;99076.98;;;3.55;81.47
36138;BME280;22194;50.046;21.954;2022-11-15T07:53:43;99077.58;;;3.66;81.65
36138;BME280;22194;50.046;21.954;2022-11-15T07:56:12;99072.39;;;3.76;81.51
36138;BME280;22194;50.046;21.954;2022-11-15T07:58:41;99071.23;;;3.86;81.38
36138;BME280;22194;50.046;21.954;2022-11-15T08:01:10;99070.98;;;3.96;81.17
36138;BME280;22194;50.046;21.954;2022-11-15T08:03:39;99067.75;;;4.06;81.23
36138;BME280;22194;50.046;21.954;2022-11-15T08:06:07;99060.30;;;4.15;81.25
36138;BME280;22194;50.046;21.954;2022-11-15T08:08:35;99060.16;;;4.26;81.42
36138;BME280;22194;50.046;21.954;2022-11-15T08:11:03;99054.03;;;4.37;81.44
36138;BME280;22194;50.046;21.954;2022-11-15T08:13:31;99049.68;;;4.47;81.38
36138;BME280;22194;50.046;21.954;2022-11-15T08:16:02;99046.31;;;4.59;81.63
36138;BME280;22194;50.046;21.954;2022-11-15T08:18:30;99046.04;;;4.71;81.50
36138;BME280;22194;50.046;21.954;2022-11-15T08:21:00;99043.56;;;4.83;81.59
36138;BME280;22194;50.046;21.954;2022-11-15T08:23:30;99041.84;;;4.93;81.53
36138;BME280;22194;50.046;21.954;2022-11-15T08:26:01;99036.77;;;5.03;81.38
36138;BME280;22194;50.046;21.954;2022-11-15T08:28:32;99034.79;;;5.14;81.47
36138;BME280;22194;50.046;21.954;2022-11-15T08:31:01;99034.95;;;5.28;81.56
36138;BME280;22194;50.046;21.954;2022-11-15T08:33:32;99032.66;;;5.49;81.90
36138;BME280;22194;50.046;21.954;2022-11-15T08:36:01;99028.98;;;5.73;81.62
36138;BME280;22194;50.046;21.954;2022-11-15T08:38:29;99026.85;;;6.00;81.67
36138;BME280;22194;50.046;21.954;2022-11-15T08:41:04;99023.80;;;6.30;81.85
36138;BME280;22194;50.046;21.954;2022-11-15T08:43:34;99019.61;;;6.61;81.64
36138;BME280;22194;50.046;21.954;2022-11-15T08:46:02;99016.80;;;6.92;81.67
36138;BME280;22194;50.046;21.954;2022-11-15T08:48:30;99011.84;;;7.25;81.56
36138;BME280;22194;50.046;21.954;2022-11-15T08:50:59;99006.02;;;7.66;81.47
36138;BME280;22194;50.046;21.954;2022-11-15T08:53:27;99002.35;;;8.08;81.65
36138;BME280;22194;50.046;21.954;2022-11-15T08:55:55;98994.02;;;8.53;81.45
36138;BME280;22194;50.046;21.954;2022-11-15T08:58:23;98990.26;;;9.00;81.49
36138;BME280;22194;50.046;21.954;2022-11-15T09:00:51;98985.61;;;9.45;81.14
36138;BME280;22194;50.046;21.954;2022-11-15T09:03:21;98984.94;;;9.93;81.13
36138;BME280;22194;50.046;21.954;2022-11-15T09:05:54;98977.73;;;10.51;80.83
36138;BME280;22194;50.046;21.954;2022-11-15T09:08:24;98971.88;;;11.13;80.51
36138;BME280;22194;50.046;21.954;2022-11-15T09:11:12;98960.81;;;11.83;80.25
36138;BME280;22194;50.046;21.954;2022-11-15T09:13:40;98963.41;;;12.38;79.88
36138;BME280;22194;50.046;21.954;2022-11-15T09:16:09;98956.52;;;12.63;79.29
36138;BME280;22194;50.046;21.954;2022-11-15T09:18:40;98956.64;;;12.73;79.32
36138;BME280;22194;50.046;21.954;2022-11-15T09:21:08;98956.61;;;12.88;79.40
36138;BME280;22194;50.046;21.954;2022-11-15T09:23:37;98953.60;;;13.03;79.42
36138;BME280;22194;50.046;21.954;2022-11-15T09:26:06;98950.28;;;13.17;79.25
36138;BME280;22194;50.046;21.954;2022-11-15T09:28:35;98949.55;;;13.13;78.64
36138;BME280;22194;50.046;21.954;2022-11-15T09:31:05;98947.02;;;13.09;78.88
36138;BME280;22194;50.046;21.954;2022-11-15T09:33:33;98944.11;;;13.14;79.09
36138;BME280;22194;50.046;21.954;2022-11-15T09:36:08;98942.27;;;13.27;79.08
36138;BME280;22194;50.046;21.954;2022-11-15T09:38:36;98931.92;;;13.36;79.22
36138;BME280;22194;50.046;21.954;2022-11-15T09:47:49;98923.15;;;13.58;78.67
36138;BME280;22194;50.046;21.954;2022-11-15T09:50:36;98920.02;;;13.71;78.67
36138;BME280;22194;50.046;21.954;2022-11-15T09:53:13;98909.24;;;13.88;78.84
36138;BME280;22194;50.046;21.954;2022-11-15T09:56:00;98908.66;;;13.93;78.66
36138;BME280;22194;50.046;21.954;2022-11-15T09:58:33;98905.02;;;13.73;77.62
36138;BME280;22194;50.046;21.954;2022-11-15T10:01:08;98904.08;;;13.64;77.78
36138;BME280;22194;50.046;21.954;2022-11-15T10:03:41;98900.98;;;13.61;77.75
36138;BME280;22194;50.046;21.954;2022-11-15T10:06:23;98900.40;;;13.57;77.83
36138;BME280;22194;50.046;21.954;2022-11-15T10:08:59;98895.94;;;13.55;77.66
36138;BME280;22194;50.046;21.954;2022-11-15T10:11:32;98898.31;;;13.58;77.85
36138;BME280;22194;50.046;21.954;2022-11-15T10:14:13;98894.35;;;13.61;77.66
36138;BME280;22194;50.046;21.954;2022-11-15T10:16:56;98896.91;;;13.64;77.52
36138;BME280;22194;50.046;21.954;2022-11-15T10:22:28;98889.40;;;13.46;76.90
36138;BME280;22194;50.046;21.954;2022-11-15T10:27:29;98882.91;;;13.24;76.97
36138;BME280;22194;50.046;21.954;2022-11-15T10:29:57;98879.97;;;13.19;76.88
36138;BME280;22194;50.046;21.954;2022-11-15T10:32:25;98874.67;;;13.14;76.68
36138;BME280;22194;50.046;21.954;2022-11-15T10:34:54;98871.48;;;13.07;76.64
36138;BME280;22194;50.046;21.954;2022-11-15T10:37:31;98870.31;;;13.01;76.61
36138;BME280;22194;50.046;21.954;2022-11-15T10:40:21;98862.97;;;12.95;76.50
36138;BME280;22194;50.046;21.954;2022-11-15T10:45:37;98859.76;;;12.74;76.22
36138;BME280;22194;50.046;21.954;2022-11-15T10:50:41;98853.77;;;12.62;76.05
36138;BME280;22194;50.046;21.954;2022-11-15T10:53:28;98853.23;;;12.58;76.08
36138;BME280;22194;50.046;21.954;2022-11-15T10:56:03;98852.56;;;12.56;75.96
36138;BME280;22194;50.046;21.954;2022-11-15T10:58:41;98847.46;;;12.51;75.68
36138;BME280;22194;50.046;21.954;2022-11-15T11:01:16;98853.11;;;12.43;75.64
36138;BME280;22194;50.046;21.954;2022-11-15T11:04:07;98849.70;;;12.37;75.49
36138;BME280;22194;50.046;21.954;2022-11-15T11:07:19;98842.73;;;12.26;75.55
36138;BME280;22194;50.046;21.954;2022-11-15T11:09:58;98845.69;;;12.31;75.51
36138;BME280;22194;50.046;21.954;2022-11-15T11:12:30;98844.25;;;12.33;75.42
36138;BME280;22194;50.046;21.954;2022-11-15T11:15:10;98842.98;;;12.34;75.26
36138;BME280;22194;50.046;21.954;2022-11-15T11:20:40;98838.89;;;12.49;75.15
36138;BME280;22194;50.046;21.954;2022-11-15T11:26:37;98822.86;;;12.77;74.89
36138;BME280;22194;50.046;21.954;2022-11-15T11:34:55;98807.96;;;13.28;74.76
36138;BME280;22194;50.046;21.954;2022-11-15T11:37:52;98801.34;;;13.38;74.59
36138;BME280;22194;50.046;21.954;2022-11-15T11:43:25;98799.66;;;13.74;74.42
36138;BME280;22194;50.046;21.954;2022-11-15T11:46:08;98793.33;;;13.95;74.25
36138;BME280;22194;50.046;21.954;2022-11-15T11:51:18;98775.46;;;14.28;73.92
36138;BME280;22194;50.046;21.954;2022-11-15T11:54:01;98769.44;;;14.45;74.01
36138;BME280;22194;50.046;21.954;2022-11-15T11:56:34;98766.44;;;14.62;73.81
36138;BME280;22194;50.046;21.954;2022-11-15T12:01:44;98753.39;;;14.84;73.59
36138;BME280;22194;50.046;21.954;2022-11-15T12:04:29;98750.13;;;14.89;73.48
36138;BME280;22194;50.046;21.954;2022-11-15T12:07:10;98745.12;;;14.97;73.26
36138;BME280;22194;50.046;21.954;2022-11-15T12:09:58;98736.09;;;15.06;73.10
36138;BME280;22194;50.046;21.954;2022-11-15T12:15:25;98726.41;;;15.25;72.75
36138;BME280;22194;50.046;21.954;2022-11-15T12:17:56;98720.98;;;15.35;72.98
36138;BME280;22194;50.046;21.954;2022-11-15T12:20:29;98721.97;;;15.45;72.96
36138;BME280;22194;50.046;21.954;2022-11-15T12:23:04;98722.02;;;15.48;72.60
36138;BME280;22194;50.046;21.954;2022-11-15T12:25:52;98719.29;;;15.50;72.60
36138;BME280;22194;50.046;21.954;2022-11-15T12:28:47;98709.37;;;15.57;72.52
36138;BME280;22194;50.046;21.954;2022-11-15T12:31:40;98705.86;;;15.67;72.30
36138;BME280;22194;50.046;21.954;2022-11-15T12:34:38;98707.14;;;15.74;72.49
36138;BME280;22194;50.046;21.954;2022-11-15T12:40:21;98703.02;;;15.56;71.80
36138;BME280;22194;50.046;21.954;2022-11-15T12:43:00;98697.44;;;15.53;71.60
36138;BME280;22194;50.046;21.954;2022-11-15T12:45:34;98692.06;;;15.58;71.66
36138;BME280;22194;50.046;21.954;2022-11-15T12:58:57;98683.86;;;15.96;71.08
36138;BME280;22194;50.046;21.954;2022-11-15T13:07:00;98676.85;;;15.73;70.69
36138;BME280;22194;50.046;21.954;2022-11-15T13:12:01;98671.89;;;15.63;70.53
36138;BME280;22194;50.046;21.954;2022-11-15T13:28:45;98668.88;;;15.54;69.79
36138;BME280;22194;50.046;21.954;2022-11-15T13:31:25;98672.17;;;15.53;69.78
36138;BME280;22194;50.046;21.954;2022-11-15T13:34:02;98666.73;;;15.54;69.61
36138;BME280;22194;50.046;21.954;2022-11-15T13:36:52;98664.48;;;15.57;69.57
36138;BME280;22194;50.046;21.954;2022-11-15T13:39:27;98662.72;;;15.59;69.53
36138;BME280;22194;50.046;21.954;2022-11-15T13:41:57;98659.61;;;15.59;69.49
36138;BME280;22194;50.046;21.954;2022-11-15T13:44:33;98658.73;;;15.58;69.35
36138;BME280;22194;50.046;21.954;2022-11-15T13:49:34;98655.35;;;15.55;69.15
36138;BME280;22194;50.046;21.954;2022-11-15T13:52:05;98651.94;;;15.48;69.12
36138;BME280;22194;50.046;21.954;2022-11-15T13:54:35;98647.05;;;15.38;68.60
36138;BME280;22194;50.046;21.954;2022-11-15T13:57:21;98645.60;;;15.33;68.90
36138;BME280;22194;50.046;21.954;2022-11-15T14:00:00;98645.23;;;15.33;68.67
36138;BME280;22194;50.046;21.954;2022-11-15T14:02:35;98641.86;;;15.31;68.64
36138;BME280;22194;50.046;21.954;2022-11-15T14:05:22;98640.39;;;15.24;68.48
36138;BME280;22194;50.046;21.954;2022-11-15T14:11:25;98644.20;;;15.00;68.38
36138;BME280;22194;50.046;21.954;2022-11-15T14:16:44;98648.20;;;14.65;68.10
36138;BME280;22194;50.046;21.954;2022-11-15T14:22:28;98643.88;;;14.36;67.99
36138;BME280;22194;50.046;21.954;2022-11-15T14:25:17;98649.57;;;14.17;68.00
36138;BME280;22194;50.046;21.954;2022-11-15T14:30:36;98648.02;;;13.78;67.80
36138;BME280;22194;50.046;21.954;2022-11-15T14:33:27;98640.27;;;13.61;67.92
36138;BME280;22194;50.046;21.954;2022-11-15T14:36:02;98637.46;;;13.43;67.83
36138;BME280;22194;50.046;21.954;2022-11-15T14:38:31;98638.41;;;13.24;67.61
36138;BME280;22194;50.046;21.954;2022-11-15T14:41:01;98634.62;;;13.11;67.76
36138;BME280;22194;50.046;21.954;2022-11-15T14:43:29;98634.36;;;12.98;67.60
36138;BME280;22194;50.046;21.954;2022-11-15T14:45:57;98631.31;;;12.84;67.57
36138;BME280;22194;50.046;21.954;2022-11-15T14:48:26;98630.60;;;12.70;67.48
36138;BME280;22194;50.046;21.954;2022-11-15T14:50:54;98631.16;;;12.57;67.55
36138;BME280;22194;50.046;21.954;2022-11-15T14:53:22;98632.86;;;12.42;67.34
36138;BME280;22194;50.046;21.954;2022-11-15T14:55:50;98634.52;;;12.27;67.36
36138;BME280;22194;50.046;21.954;2022-11-15T14:58:18;98628.92;;;12.13;67.41
36138;BME280;22194;50.046;21.954;2022-11-15T15:00:46;98632.47;;;12.01;67.30
36138;BME280;22194;50.046;21.954;2022-11-15T15:03:14;98633.10;;;11.89;67.36
36138;BME280;22194;50.046;21.954;2022-11-15T15:05:43;98635.84;;;11.78;67.25
36138;BME280;22194;50.046;21.954;2022-11-15T15:08:12;98631.96;;;11.68;67.25
36138;BME280;22194;50.046;21.954;2022-11-15T15:10:43;98630.58;;;11.59;67.11
36138;BME280;22194;50.046;21.954;2022-11-15T15:15:45;98621.65;;;11.47;66.96
36138;BME280;22194;50.046;21.954;2022-11-15T15:18:13;98617.63;;;11.44;66.90
36138;BME280;22194;50.046;21.954;2022-11-15T15:20:45;98616.69;;;11.43;66.98
36138;BME280;22194;50.046;21.954;2022-11-15T15:23:18;98616.75;;;11.40;66.93